ボードー の空港の天気 - METARとTAF

Bodo Vi ( ENBO / BOO ) - ノルウェー ヌールラン県ボードー
飛行場実況気象(Metar)
観測時間01/20 18:50 CET (01/20 17:50 UTC)
風向・風速西 10m/s
視程10km以上
天気現象周辺でしゅう雨
少しの雲 雲底高度 460m
全天の8割程度の雲 雲底高度 1220m
気温2℃
湿度69%
気圧1014hPa
METARENBO 201750Z 28020KT 9999 VCSH FEW015CB BKN040 02/M03 Q1014 TEMPO 28025G35KT 0800 SHSNGS VV006
過去の天気等 Google飛行場航空写真 Wunderground天気予報

過去48時間のMETAR

飛行場予報(TAF)
発表時間: -
20日19時 CET ~ 21日4時 CET に一時的に
全天の8割程度の積乱雲 雲底高度 370m
20日19時 CET ~ 21日4時 CET に一時的に
風向・風速西 13m/s 瞬間風速 18m/s
視程800m
天気現象しゅう雪あられ
全天を覆う雲 鉛直視程 180m
21日7時 CET ~ 21日16時 CET に一時的に
風向・風速南 4m/s
21日13時 CET ~ 21日19時 CET に一時的に
視程2,000m
天気現象雪雨
全天を覆う雲 鉛直視程 370m
21日14時 CET ~ 21日16時 CET に徐々に
風向・風速東 8m/s
TAF ENBO 2018/2118 30018KT 9999 -SHSN FEW015TCU BKN030
TEMPO 2018/2103 BKN012CB
TEMPO 2018/2103 28025G35KT 0800 SHSNGS VV006
TEMPO 2106/2115 18008KT
TEMPO 2112/2118 2000 SNRA VV012
BECMG 2113/2115 10015KT